sensor_id;sensor_type;location;lat;lon;timestamp;pressure;altitude;pressure_sealevel;temperature;humidity
56006;BME280;41888;44.696;10.522;2023-08-31T00:01:11;99753.44;;;18.12;100.00
56006;BME280;41888;44.696;10.522;2023-08-31T00:03:38;99757.19;;;18.16;100.00
56006;BME280;41888;44.696;10.522;2023-08-31T00:06:04;99755.03;;;18.23;100.00
56006;BME280;41888;44.696;10.522;2023-08-31T00:08:33;99750.16;;;18.30;100.00
56006;BME280;41888;44.696;10.522;2023-08-31T00:11:00;99748.28;;;18.36;100.00
56006;BME280;41888;44.696;10.522;2023-08-31T00:13:27;99752.84;;;18.35;100.00
56006;BME280;41888;44.696;10.522;2023-08-31T00:15:57;99755.84;;;18.29;100.00
56006;BME280;41888;44.696;10.522;2023-08-31T00:18:24;99751.00;;;18.26;100.00
56006;BME280;41888;44.696;10.522;2023-08-31T00:20:52;99755.28;;;18.32;100.00
56006;BME280;41888;44.696;10.522;2023-08-31T00:23:19;99752.59;;;18.32;100.00
56006;BME280;41888;44.696;10.522;2023-08-31T00:25:46;99757.19;;;18.26;100.00
56006;BME280;41888;44.696;10.522;2023-08-31T00:28:14;99760.13;;;18.30;100.00
56006;BME280;41888;44.696;10.522;2023-08-31T00:30:41;99754.75;;;18.25;100.00
56006;BME280;41888;44.696;10.522;2023-08-31T00:33:08;99761.25;;;18.24;100.00
56006;BME280;41888;44.696;10.522;2023-08-31T00:35:34;99762.84;;;18.25;100.00
56006;BME280;41888;44.696;10.522;2023-08-31T00:38:00;99765.00;;;18.23;100.00
56006;BME280;41888;44.696;10.522;2023-08-31T00:40:27;99768.53;;;18.13;100.00
56006;BME280;41888;44.696;10.522;2023-08-31T00:43:05;99766.63;;;18.13;100.00
56006;BME280;41888;44.696;10.522;2023-08-31T00:45:31;99772.81;;;18.14;100.00
56006;BME280;41888;44.696;10.522;2023-08-31T00:47:57;99769.59;;;18.07;100.00
56006;BME280;41888;44.696;10.522;2023-08-31T00:50:24;99763.66;;;18.00;100.00
56006;BME280;41888;44.696;10.522;2023-08-31T00:52:50;99765.84;;;18.03;100.00
56006;BME280;41888;44.696;10.522;2023-08-31T00:55:16;99770.13;;;18.04;100.00
56006;BME280;41888;44.696;10.522;2023-08-31T00:57:44;99777.66;;;17.97;100.00
56006;BME280;41888;44.696;10.522;2023-08-31T01:00:11;99783.31;;;17.95;100.00
56006;BME280;41888;44.696;10.522;2023-08-31T01:11:01;99786.00;;;17.95;100.00
56006;BME280;41888;44.696;10.522;2023-08-31T01:13:34;99779.00;;;18.04;100.00
56006;BME280;41888;44.696;10.522;2023-08-31T01:16:05;99784.94;;;18.01;100.00
56006;BME280;41888;44.696;10.522;2023-08-31T01:18:33;99787.06;;;17.94;100.00
56006;BME280;41888;44.696;10.522;2023-08-31T01:21:30;99791.94;;;17.92;100.00
56006;BME280;41888;44.696;10.522;2023-08-31T01:24:01;99785.75;;;17.97;100.00
56006;BME280;41888;44.696;10.522;2023-08-31T01:26:27;99800.28;;;17.91;100.00
56006;BME280;41888;44.696;10.522;2023-08-31T01:28:55;99801.59;;;17.88;100.00
56006;BME280;41888;44.696;10.522;2023-08-31T01:31:22;99798.38;;;17.86;100.00
56006;BME280;41888;44.696;10.522;2023-08-31T01:33:48;99793.78;;;17.77;100.00
56006;BME280;41888;44.696;10.522;2023-08-31T01:36:30;99798.63;;;17.80;100.00
56006;BME280;41888;44.696;10.522;2023-08-31T01:41:46;99802.69;;;17.92;100.00
56006;BME280;41888;44.696;10.522;2023-08-31T01:44:16;99804.28;;;17.83;100.00
56006;BME280;41888;44.696;10.522;2023-08-31T01:46:51;99810.22;;;17.80;100.00
56006;BME280;41888;44.696;10.522;2023-08-31T01:49:17;99816.66;;;17.74;100.00
56006;BME280;41888;44.696;10.522;2023-08-31T01:51:45;99811.53;;;17.67;100.00
56006;BME280;41888;44.696;10.522;2023-08-31T01:54:11;99815.28;;;17.66;100.00
56006;BME280;41888;44.696;10.522;2023-08-31T01:56:37;99825.22;;;17.66;100.00
56006;BME280;41888;44.696;10.522;2023-08-31T01:59:03;99824.72;;;17.64;100.00
56006;BME280;41888;44.696;10.522;2023-08-31T02:01:32;99831.72;;;17.65;100.00
56006;BME280;41888;44.696;10.522;2023-08-31T02:03:58;99834.41;;;17.65;100.00
56006;BME280;41888;44.696;10.522;2023-08-31T02:06:24;99836.28;;;17.69;100.00
56006;BME280;41888;44.696;10.522;2023-08-31T02:08:50;99837.63;;;17.67;100.00
56006;BME280;41888;44.696;10.522;2023-08-31T02:11:16;99836.53;;;17.63;100.00
56006;BME280;41888;44.696;10.522;2023-08-31T02:13:42;99841.66;;;17.69;100.00
56006;BME280;41888;44.696;10.522;2023-08-31T02:16:09;99844.09;;;17.71;100.00
56006;BME280;41888;44.696;10.522;2023-08-31T02:18:35;99850.53;;;17.65;100.00
56006;BME280;41888;44.696;10.522;2023-08-31T02:21:01;99854.25;;;17.59;100.00
56006;BME280;41888;44.696;10.522;2023-08-31T02:23:28;99853.69;;;17.52;100.00
56006;BME280;41888;44.696;10.522;2023-08-31T02:25:54;99859.81;;;17.37;100.00
56006;BME280;41888;44.696;10.522;2023-08-31T02:28:20;99868.13;;;17.30;100.00
56006;BME280;41888;44.696;10.522;2023-08-31T02:30:56;99866.41;;;17.09;100.00
56006;BME280;41888;44.696;10.522;2023-08-31T02:33:23;99875.53;;;17.08;100.00
56006;BME280;41888;44.696;10.522;2023-08-31T02:35:49;99878.16;;;16.98;100.00
56006;BME280;41888;44.696;10.522;2023-08-31T02:38:15;99882.94;;;16.86;100.00
56006;BME280;41888;44.696;10.522;2023-08-31T02:40:41;99894.38;;;16.71;100.00
56006;BME280;41888;44.696;10.522;2023-08-31T02:43:07;99887.63;;;16.64;100.00
56006;BME280;41888;44.696;10.522;2023-08-31T02:45:35;99886.53;;;16.60;100.00
56006;BME280;41888;44.696;10.522;2023-08-31T02:48:01;99884.16;;;16.68;100.00
56006;BME280;41888;44.696;10.522;2023-08-31T02:50:29;99886.06;;;16.73;100.00
56006;BME280;41888;44.696;10.522;2023-08-31T02:52:55;99895.19;;;16.72;100.00
56006;BME280;41888;44.696;10.522;2023-08-31T02:55:22;99887.13;;;16.72;100.00
56006;BME280;41888;44.696;10.522;2023-08-31T02:57:48;99888.69;;;16.63;100.00
56006;BME280;41888;44.696;10.522;2023-08-31T03:00:14;99896.09;;;16.56;100.00
56006;BME280;41888;44.696;10.522;2023-08-31T03:02:41;99900.66;;;16.55;100.00
56006;BME280;41888;44.696;10.522;2023-08-31T03:05:07;99902.00;;;16.53;100.00
56006;BME280;41888;44.696;10.522;2023-08-31T03:07:34;99897.16;;;16.50;100.00
56006;BME280;41888;44.696;10.522;2023-08-31T03:10:00;99896.09;;;16.56;100.00
56006;BME280;41888;44.696;10.522;2023-08-31T03:12:26;99896.44;;;16.59;100.00
56006;BME280;41888;44.696;10.522;2023-08-31T03:14:53;99896.72;;;16.63;100.00
56006;BME280;41888;44.696;10.522;2023-08-31T03:17:19;99895.63;;;16.59;100.00
56006;BME280;41888;44.696;10.522;2023-08-31T03:19:45;99895.28;;;16.55;100.00
56006;BME280;41888;44.696;10.522;2023-08-31T03:22:11;99903.69;;;16.59;100.00
56006;BME280;41888;44.696;10.522;2023-08-31T03:24:37;99906.25;;;16.48;100.00
56006;BME280;41888;44.696;10.522;2023-08-31T03:27:04;99899.94;;;16.60;100.00
56006;BME280;41888;44.696;10.522;2023-08-31T03:29:30;99902.09;;;16.63;100.00
56006;BME280;41888;44.696;10.522;2023-08-31T03:31:59;99901.94;;;16.74;100.00
56006;BME280;41888;44.696;10.522;2023-08-31T03:34:29;99907.38;;;16.53;100.00
56006;BME280;41888;44.696;10.522;2023-08-31T03:36:57;99905.75;;;16.52;100.00
56006;BME280;41888;44.696;10.522;2023-08-31T03:39:24;99910.41;;;16.34;100.00
56006;BME280;41888;44.696;10.522;2023-08-31T03:41:50;99919.84;;;16.37;100.00
56006;BME280;41888;44.696;10.522;2023-08-31T03:44:17;99921.16;;;16.34;100.00
56006;BME280;41888;44.696;10.522;2023-08-31T03:46:43;99920.63;;;16.32;100.00
56006;BME280;41888;44.696;10.522;2023-08-31T03:49:09;99932.84;;;16.23;100.00
56006;BME280;41888;44.696;10.522;2023-08-31T03:51:36;99929.44;;;16.28;100.00
56006;BME280;41888;44.696;10.522;2023-08-31T03:54:02;99928.56;;;16.22;100.00
56006;BME280;41888;44.696;10.522;2023-08-31T03:56:28;99926.13;;;16.21;100.00
56006;BME280;41888;44.696;10.522;2023-08-31T03:58:54;99932.31;;;16.21;100.00
56006;BME280;41888;44.696;10.522;2023-08-31T04:01:20;99934.94;;;16.16;100.00
56006;BME280;41888;44.696;10.522;2023-08-31T04:03:47;99931.25;;;16.22;100.00
56006;BME280;41888;44.696;10.522;2023-08-31T04:06:13;99929.69;;;16.26;100.00
56006;BME280;41888;44.696;10.522;2023-08-31T04:08:39;99939.31;;;16.22;100.00
56006;BME280;41888;44.696;10.522;2023-08-31T04:11:05;99936.00;;;16.15;100.00
56006;BME280;41888;44.696;10.522;2023-08-31T04:13:31;99943.81;;;16.17;100.00
56006;BME280;41888;44.696;10.522;2023-08-31T04:15:57;99953.91;;;16.31;100.00
56006;BME280;41888;44.696;10.522;2023-08-31T04:18:24;99954.91;;;16.25;100.00
56006;BME280;41888;44.696;10.522;2023-08-31T04:20:51;99959.81;;;16.33;100.00
56006;BME280;41888;44.696;10.522;2023-08-31T04:23:19;99958.69;;;16.29;100.00
56006;BME280;41888;44.696;10.522;2023-08-31T04:25:46;99972.63;;;16.26;100.00
56006;BME280;41888;44.696;10.522;2023-08-31T04:28:13;99967.25;;;16.26;100.00
56006;BME280;41888;44.696;10.522;2023-08-31T04:30:40;99970.56;;;16.33;100.00
56006;BME280;41888;44.696;10.522;2023-08-31T04:33:07;99972.25;;;16.44;100.00
56006;BME280;41888;44.696;10.522;2023-08-31T04:35:34;99973.34;;;16.43;100.00
56006;BME280;41888;44.696;10.522;2023-08-31T04:38:00;99967.41;;;16.41;100.00
56006;BME280;41888;44.696;10.522;2023-08-31T04:40:28;99977.09;;;16.16;100.00
56006;BME280;41888;44.696;10.522;2023-08-31T04:42:55;99980.41;;;16.01;100.00
56006;BME280;41888;44.696;10.522;2023-08-31T04:45:21;99980.28;;;15.91;100.00
56006;BME280;41888;44.696;10.522;2023-08-31T04:47:47;99988.28;;;15.86;100.00
56006;BME280;41888;44.696;10.522;2023-08-31T04:50:15;99999.00;;;15.86;100.00
56006;BME280;41888;44.696;10.522;2023-08-31T04:52:41;100003.94;;;15.94;100.00
56006;BME280;41888;44.696;10.522;2023-08-31T04:55:07;99998.25;;;15.90;100.00
56006;BME280;41888;44.696;10.522;2023-08-31T04:57:34;99998.00;;;15.92;100.00
56006;BME280;41888;44.696;10.522;2023-08-31T05:00:01;100002.41;;;16.03;100.00
56006;BME280;41888;44.696;10.522;2023-08-31T05:02:28;99995.13;;;16.47;100.00
56006;BME280;41888;44.696;10.522;2023-08-31T05:04:54;100002.47;;;16.83;100.00
56006;BME280;41888;44.696;10.522;2023-08-31T05:07:20;100005.78;;;17.27;100.00
56006;BME280;41888;44.696;10.522;2023-08-31T05:09:47;100018.56;;;17.52;100.00
56006;BME280;41888;44.696;10.522;2023-08-31T05:12:13;100012.47;;;17.67;100.00
56006;BME280;41888;44.696;10.522;2023-08-31T05:14:39;100014.56;;;18.07;100.00
56006;BME280;41888;44.696;10.522;2023-08-31T05:17:06;100017.72;;;17.89;100.00
56006;BME280;41888;44.696;10.522;2023-08-31T05:19:32;100017.38;;;17.70;100.00
56006;BME280;41888;44.696;10.522;2023-08-31T05:21:58;100023.06;;;17.42;100.00
56006;BME280;41888;44.696;10.522;2023-08-31T05:24:24;100029.75;;;17.34;100.00
56006;BME280;41888;44.696;10.522;2023-08-31T05:26:50;100028.38;;;17.68;100.00
56006;BME280;41888;44.696;10.522;2023-08-31T05:29:17;100024.00;;;18.20;100.00
56006;BME280;41888;44.696;10.522;2023-08-31T05:31:43;100020.03;;;18.42;100.00
56006;BME280;41888;44.696;10.522;2023-08-31T05:34:16;100027.38;;;18.62;100.00
56006;BME280;41888;44.696;10.522;2023-08-31T05:36:44;100022.88;;;18.00;100.00
56006;BME280;41888;44.696;10.522;2023-08-31T05:39:10;100040.09;;;17.99;100.00
56006;BME280;41888;44.696;10.522;2023-08-31T05:41:36;100035.53;;;18.00;100.00
56006;BME280;41888;44.696;10.522;2023-08-31T05:44:02;100045.38;;;17.79;100.00
56006;BME280;41888;44.696;10.522;2023-08-31T05:46:29;100044.78;;;17.67;100.00
56006;BME280;41888;44.696;10.522;2023-08-31T05:48:55;100055.06;;;17.38;100.00
56006;BME280;41888;44.696;10.522;2023-08-31T05:51:21;100057.25;;;17.46;100.00
56006;BME280;41888;44.696;10.522;2023-08-31T05:53:47;100050.56;;;17.49;100.00
56006;BME280;41888;44.696;10.522;2023-08-31T05:56:14;100057.59;;;17.55;100.00
56006;BME280;41888;44.696;10.522;2023-08-31T05:58:40;100066.31;;;17.35;100.00
56006;BME280;41888;44.696;10.522;2023-08-31T06:01:07;100078.00;;;17.51;100.00
56006;BME280;41888;44.696;10.522;2023-08-31T06:03:33;100080.03;;;17.65;100.00
56006;BME280;41888;44.696;10.522;2023-08-31T06:06:00;100069.50;;;18.11;100.00
56006;BME280;41888;44.696;10.522;2023-08-31T06:08:26;100071.78;;;18.39;100.00
56006;BME280;41888;44.696;10.522;2023-08-31T06:10:53;100069.47;;;18.88;100.00
56006;BME280;41888;44.696;10.522;2023-08-31T06:13:19;100062.75;;;19.52;100.00
56006;BME280;41888;44.696;10.522;2023-08-31T06:15:45;100070.03;;;19.46;100.00
56006;BME280;41888;44.696;10.522;2023-08-31T06:18:11;100075.16;;;19.22;100.00
56006;BME280;41888;44.696;10.522;2023-08-31T06:20:37;100076.22;;;19.11;100.00
56006;BME280;41888;44.696;10.522;2023-08-31T06:23:04;100079.22;;;19.45;100.00
56006;BME280;41888;44.696;10.522;2023-08-31T06:25:30;100076.66;;;20.14;100.00
56006;BME280;41888;44.696;10.522;2023-08-31T06:27:56;100075.44;;;20.46;100.00
56006;BME280;41888;44.696;10.522;2023-08-31T06:30:22;100070.03;;;20.46;100.00
56006;BME280;41888;44.696;10.522;2023-08-31T06:32:48;100076.31;;;20.21;100.00
56006;BME280;41888;44.696;10.522;2023-08-31T06:35:16;100081.28;;;20.04;100.00
56006;BME280;41888;44.696;10.522;2023-08-31T06:37:42;100084.19;;;20.12;100.00
56006;BME280;41888;44.696;10.522;2023-08-31T06:40:10;100082.88;;;20.00;100.00
56006;BME280;41888;44.696;10.522;2023-08-31T06:42:39;100075.78;;;20.24;100.00
56006;BME280;41888;44.696;10.522;2023-08-31T06:45:07;100084.03;;;20.53;100.00
56006;BME280;41888;44.696;10.522;2023-08-31T06:47:33;100089.75;;;20.46;100.00
56006;BME280;41888;44.696;10.522;2023-08-31T06:50:00;100088.22;;;20.15;100.00
56006;BME280;41888;44.696;10.522;2023-08-31T06:52:27;100093.56;;;20.45;100.00
56006;BME280;41888;44.696;10.522;2023-08-31T06:54:53;100082.31;;;21.16;100.00
56006;BME280;41888;44.696;10.522;2023-08-31T06:57:25;100088.69;;;21.30;100.00
56006;BME280;41888;44.696;10.522;2023-08-31T06:59:52;100080.53;;;21.35;100.00
56006;BME280;41888;44.696;10.522;2023-08-31T07:02:18;100093.56;;;21.28;100.00
56006;BME280;41888;44.696;10.522;2023-08-31T07:04:51;100090.56;;;21.35;100.00
56006;BME280;41888;44.696;10.522;2023-08-31T07:07:18;100101.06;;;21.36;100.00
56006;BME280;41888;44.696;10.522;2023-08-31T07:09:45;100091.25;;;21.74;100.00
56006;BME280;41888;44.696;10.522;2023-08-31T07:12:11;100098.44;;;21.84;100.00
56006;BME280;41888;44.696;10.522;2023-08-31T07:14:38;100100.97;;;21.52;100.00
56006;BME280;41888;44.696;10.522;2023-08-31T07:17:04;100104.59;;;20.98;100.00
56006;BME280;41888;44.696;10.522;2023-08-31T07:19:31;100107.59;;;20.96;100.00
56006;BME280;41888;44.696;10.522;2023-08-31T07:21:57;100108.84;;;21.09;100.00
56006;BME280;41888;44.696;10.522;2023-08-31T07:24:25;100112.38;;;21.04;100.00
56006;BME280;41888;44.696;10.522;2023-08-31T07:26:51;100106.06;;;21.24;100.00
56006;BME280;41888;44.696;10.522;2023-08-31T07:29:18;100113.25;;;20.95;100.00
56006;BME280;41888;44.696;10.522;2023-08-31T07:31:44;100116.28;;;20.93;100.00
56006;BME280;41888;44.696;10.522;2023-08-31T07:34:10;100124.78;;;21.11;100.00
56006;BME280;41888;44.696;10.522;2023-08-31T07:36:36;100133.53;;;20.97;100.00
56006;BME280;41888;44.696;10.522;2023-08-31T07:39:03;100136.81;;;20.89;100.00
56006;BME280;41888;44.696;10.522;2023-08-31T07:41:31;100126.28;;;20.93;100.00
56006;BME280;41888;44.696;10.522;2023-08-31T07:43:57;100128.53;;;21.25;100.00
56006;BME280;41888;44.696;10.522;2023-08-31T07:46:24;100135.72;;;21.39;100.00
56006;BME280;41888;44.696;10.522;2023-08-31T07:48:50;100135.53;;;21.60;100.00
56006;BME280;41888;44.696;10.522;2023-08-31T07:51:16;100134.94;;;21.97;100.00
56006;BME280;41888;44.696;10.522;2023-08-31T07:53:43;100137.72;;;22.15;100.00
56006;BME280;41888;44.696;10.522;2023-08-31T07:56:09;100142.66;;;22.32;100.00
56006;BME280;41888;44.696;10.522;2023-08-31T07:58:35;100145.63;;;22.36;100.00
56006;BME280;41888;44.696;10.522;2023-08-31T08:01:01;100144.22;;;22.38;100.00
56006;BME280;41888;44.696;10.522;2023-08-31T08:03:27;100149.69;;;22.57;100.00
56006;BME280;41888;44.696;10.522;2023-08-31T08:05:55;100152.59;;;22.42;99.05
56006;BME280;41888;44.696;10.522;2023-08-31T08:08:21;100150.97;;;22.41;100.00
56006;BME280;41888;44.696;10.522;2023-08-31T08:10:52;100156.16;;;22.61;100.00
56006;BME280;41888;44.696;10.522;2023-08-31T08:13:19;100161.94;;;22.78;99.08
56006;BME280;41888;44.696;10.522;2023-08-31T08:15:46;100163.69;;;22.88;100.00
56006;BME280;41888;44.696;10.522;2023-08-31T08:18:12;100155.34;;;23.03;98.52
56006;BME280;41888;44.696;10.522;2023-08-31T08:20:39;100166.16;;;23.22;96.95
56006;BME280;41888;44.696;10.522;2023-08-31T08:23:06;100165.38;;;23.21;96.22
56006;BME280;41888;44.696;10.522;2023-08-31T08:25:32;100158.50;;;23.42;97.08
56006;BME280;41888;44.696;10.522;2023-08-31T08:27:59;100153.72;;;23.72;92.50
56006;BME280;41888;44.696;10.522;2023-08-31T08:30:25;100156.25;;;23.49;93.38
56006;BME280;41888;44.696;10.522;2023-08-31T08:32:51;100157.28;;;23.53;91.89
56006;BME280;41888;44.696;10.522;2023-08-31T08:35:17;100162.44;;;23.36;90.40
56006;BME280;41888;44.696;10.522;2023-08-31T08:37:44;100159.00;;;23.31;92.98
56006;BME280;41888;44.696;10.522;2023-08-31T08:40:10;100161.25;;;23.61;91.53
56006;BME280;41888;44.696;10.522;2023-08-31T08:42:41;100160.13;;;23.94;90.91
56006;BME280;41888;44.696;10.522;2023-08-31T08:45:15;100164.59;;;23.85;86.38
56006;BME280;41888;44.696;10.522;2023-08-31T08:47:43;100167.22;;;24.23;88.81
56006;BME280;41888;44.696;10.522;2023-08-31T08:50:11;100161.25;;;24.62;86.64
56006;BME280;41888;44.696;10.522;2023-08-31T08:52:41;100164.59;;;24.45;82.32
56006;BME280;41888;44.696;10.522;2023-08-31T08:55:08;100168.50;;;24.66;80.63
56006;BME280;41888;44.696;10.522;2023-08-31T08:57:35;100165.69;;;24.71;80.41
56006;BME280;41888;44.696;10.522;2023-08-31T09:00:02;100171.56;;;24.51;81.00
56006;BME280;41888;44.696;10.522;2023-08-31T09:02:29;100178.31;;;24.26;77.91
56006;BME280;41888;44.696;10.522;2023-08-31T09:04:55;100185.41;;;24.09;78.25
56006;BME280;41888;44.696;10.522;2023-08-31T09:07:22;100173.97;;;24.53;77.82
56006;BME280;41888;44.696;10.522;2023-08-31T09:09:53;100175.97;;;24.88;77.33
56006;BME280;41888;44.696;10.522;2023-08-31T09:12:24;100169.09;;;24.91;73.10
56006;BME280;41888;44.696;10.522;2023-08-31T09:15:00;100170.94;;;24.68;74.80
56006;BME280;41888;44.696;10.522;2023-08-31T09:17:32;100179.63;;;24.43;73.82
56006;BME280;41888;44.696;10.522;2023-08-31T09:20:03;100182.41;;;24.37;74.85
56006;BME280;41888;44.696;10.522;2023-08-31T09:22:30;100176.25;;;24.59;73.28
56006;BME280;41888;44.696;10.522;2023-08-31T09:24:56;100172.53;;;24.82;73.98
56006;BME280;41888;44.696;10.522;2023-08-31T09:27:23;100173.53;;;25.00;71.11
56006;BME280;41888;44.696;10.522;2023-08-31T09:29:53;100172.72;;;25.00;70.20
56006;BME280;41888;44.696;10.522;2023-08-31T09:32:20;100172.31;;;24.93;68.57
56006;BME280;41888;44.696;10.522;2023-08-31T09:34:46;100172.19;;;25.11;70.14
56006;BME280;41888;44.696;10.522;2023-08-31T09:37:15;100164.44;;;25.49;68.61
56006;BME280;41888;44.696;10.522;2023-08-31T09:39:41;100168.19;;;25.31;68.49
56006;BME280;41888;44.696;10.522;2023-08-31T09:42:08;100162.91;;;25.35;68.39
56006;BME280;41888;44.696;10.522;2023-08-31T09:44:34;100154.56;;;25.53;67.82
56006;BME280;41888;44.696;10.522;2023-08-31T09:47:06;100157.41;;;25.71;66.62
56006;BME280;41888;44.696;10.522;2023-08-31T09:49:33;100148.25;;;25.67;65.92
56006;BME280;41888;44.696;10.522;2023-08-31T09:52:03;100165.69;;;25.43;67.24
56006;BME280;41888;44.696;10.522;2023-08-31T09:54:30;100165.47;;;25.53;66.78
56006;BME280;41888;44.696;10.522;2023-08-31T09:56:56;100153.53;;;25.63;65.75
56006;BME280;41888;44.696;10.522;2023-08-31T09:59:26;100157.38;;;25.62;64.97
56006;BME280;41888;44.696;10.522;2023-08-31T10:01:52;100162.38;;;25.69;64.40
56006;BME280;41888;44.696;10.522;2023-08-31T10:04:22;100153.81;;;25.84;64.58
56006;BME280;41888;44.696;10.522;2023-08-31T10:06:49;100162.59;;;25.14;65.92
56006;BME280;41888;44.696;10.522;2023-08-31T10:09:16;100158.03;;;25.68;67.19
56006;BME280;41888;44.696;10.522;2023-08-31T10:11:43;100163.69;;;26.02;63.96
56006;BME280;41888;44.696;10.522;2023-08-31T10:14:11;100145.38;;;26.25;62.12
56006;BME280;41888;44.696;10.522;2023-08-31T10:16:39;100152.44;;;26.34;63.34
56006;BME280;41888;44.696;10.522;2023-08-31T10:19:06;100146.25;;;26.51;61.14
56006;BME280;41888;44.696;10.522;2023-08-31T10:21:33;100144.53;;;25.85;62.43
56006;BME280;41888;44.696;10.522;2023-08-31T10:23:59;100154.19;;;25.91;64.44
56006;BME280;41888;44.696;10.522;2023-08-31T10:26:29;100154.22;;;26.30;62.76
56006;BME280;41888;44.696;10.522;2023-08-31T10:28:57;100146.41;;;26.55;61.64
56006;BME280;41888;44.696;10.522;2023-08-31T10:31:23;100147.72;;;26.66;61.72
56006;BME280;41888;44.696;10.522;2023-08-31T10:33:58;100136.38;;;26.98;59.47
56006;BME280;41888;44.696;10.522;2023-08-31T10:36:39;100135.41;;;27.03;59.58
56006;BME280;41888;44.696;10.522;2023-08-31T10:39:27;100119.50;;;27.39;58.58
56006;BME280;41888;44.696;10.522;2023-08-31T10:41:56;100127.56;;;27.18;56.97
56006;BME280;41888;44.696;10.522;2023-08-31T10:44:24;100131.56;;;27.29;57.30
56006;BME280;41888;44.696;10.522;2023-08-31T10:46:51;100123.88;;;27.06;58.45
56006;BME280;41888;44.696;10.522;2023-08-31T10:49:20;100132.88;;;26.32;58.99
56006;BME280;41888;44.696;10.522;2023-08-31T10:51:57;100139.28;;;26.28;61.93
56006;BME280;41888;44.696;10.522;2023-08-31T10:54:25;100143.44;;;26.25;62.79
56006;BME280;41888;44.696;10.522;2023-08-31T10:59:40;100142.75;;;26.68;60.61
56006;BME280;41888;44.696;10.522;2023-08-31T11:02:07;100133.34;;;27.08;57.32
56006;BME280;41888;44.696;10.522;2023-08-31T11:04:53;100113.88;;;27.53;58.28
56006;BME280;41888;44.696;10.522;2023-08-31T11:07:23;100118.34;;;27.66;58.44
56006;BME280;41888;44.696;10.522;2023-08-31T11:09:50;100128.69;;;27.00;59.03
56006;BME280;41888;44.696;10.522;2023-08-31T11:12:16;100128.31;;;26.67;60.48
56006;BME280;41888;44.696;10.522;2023-08-31T11:14:42;100130.69;;;26.12;60.41
56006;BME280;41888;44.696;10.522;2023-08-31T11:17:09;100137.06;;;25.99;62.09
56006;BME280;41888;44.696;10.522;2023-08-31T11:19:37;100138.69;;;25.33;64.79
56006;BME280;41888;44.696;10.522;2023-08-31T11:22:04;100145.78;;;25.79;63.52
56006;BME280;41888;44.696;10.522;2023-08-31T11:24:31;100135.53;;;26.15;61.20
56006;BME280;41888;44.696;10.522;2023-08-31T11:27:06;100136.28;;;26.38;60.41
56006;BME280;41888;44.696;10.522;2023-08-31T11:29:36;100120.50;;;27.00;58.81
56006;BME280;41888;44.696;10.522;2023-08-31T11:32:02;100128.50;;;26.23;62.41
56006;BME280;41888;44.696;10.522;2023-08-31T11:34:29;100129.97;;;25.89;62.38
56006;BME280;41888;44.696;10.522;2023-08-31T11:36:55;100128.09;;;26.07;61.18
56006;BME280;41888;44.696;10.522;2023-08-31T11:39:21;100127.31;;;26.46;61.81
56006;BME280;41888;44.696;10.522;2023-08-31T11:41:48;100121.31;;;26.27;61.01
56006;BME280;41888;44.696;10.522;2023-08-31T11:44:16;100129.13;;;26.20;61.47
56006;BME280;41888;44.696;10.522;2023-08-31T11:46:45;100121.06;;;26.63;60.37
56006;BME280;41888;44.696;10.522;2023-08-31T11:49:14;100123.72;;;26.28;59.61
56006;BME280;41888;44.696;10.522;2023-08-31T11:51:41;100118.50;;;26.18;61.52
56006;BME280;41888;44.696;10.522;2023-08-31T11:54:10;100119.31;;;25.79;64.39
56006;BME280;41888;44.696;10.522;2023-08-31T11:56:44;100115.94;;;25.74;63.49
56006;BME280;41888;44.696;10.522;2023-08-31T11:59:17;100124.19;;;25.38;64.84
56006;BME280;41888;44.696;10.522;2023-08-31T12:01:45;100125.34;;;25.23;65.57
56006;BME280;41888;44.696;10.522;2023-08-31T12:04:21;100118.19;;;25.27;66.38
56006;BME280;41888;44.696;10.522;2023-08-31T12:06:52;100123.75;;;25.22;67.39
56006;BME280;41888;44.696;10.522;2023-08-31T12:09:21;100126.81;;;25.07;67.41
56006;BME280;41888;44.696;10.522;2023-08-31T12:11:51;100126.50;;;25.08;68.44
56006;BME280;41888;44.696;10.522;2023-08-31T12:14:21;100135.41;;;25.22;69.22
56006;BME280;41888;44.696;10.522;2023-08-31T12:16:48;100136.97;;;25.15;67.52
56006;BME280;41888;44.696;10.522;2023-08-31T12:19:15;100142.69;;;25.27;67.33
56006;BME280;41888;44.696;10.522;2023-08-31T12:21:44;100136.56;;;25.21;68.19
56006;BME280;41888;44.696;10.522;2023-08-31T12:24:11;100140.88;;;25.22;70.61
56006;BME280;41888;44.696;10.522;2023-08-31T12:26:37;100144.34;;;25.14;70.69
56006;BME280;41888;44.696;10.522;2023-08-31T12:29:04;100138.03;;;25.05;70.09
56006;BME280;41888;44.696;10.522;2023-08-31T12:31:33;100142.44;;;25.01;71.49
56006;BME280;41888;44.696;10.522;2023-08-31T12:34:00;100146.91;;;24.83;70.47
56006;BME280;41888;44.696;10.522;2023-08-31T12:36:30;100146.53;;;24.76;70.77
56006;BME280;41888;44.696;10.522;2023-08-31T12:38:56;100146.75;;;24.66;72.43
56006;BME280;41888;44.696;10.522;2023-08-31T12:41:24;100138.59;;;24.66;74.72
56006;BME280;41888;44.696;10.522;2023-08-31T12:43:50;100147.25;;;24.55;75.47
56006;BME280;41888;44.696;10.522;2023-08-31T12:46:17;100143.94;;;24.44;77.98
56006;BME280;41888;44.696;10.522;2023-08-31T12:48:43;100149.19;;;24.40;81.36
56006;BME280;41888;44.696;10.522;2023-08-31T12:51:09;100151.94;;;24.27;81.17
56006;BME280;41888;44.696;10.522;2023-08-31T12:53:39;100152.16;;;24.12;85.71